Raleigh, North Dakota
Current Conditions -  °F | °C
As of 6:55 AM on Friday 24 Oct 2014 (Local Time) from KY19 Reporting Station
Clear Clear  
Wind Chill: 38°   Ceiling: Unl
Heat Index: 43°   Visibility: 10mi
Dew Point: 32°   Wind: 8mph
Humidity: 66%   Direction: 280°W
Pressure: 29.85"   Gusts: NA
Location:  46.36°N, 101.31°W
Report Text: KY19 241255Z AUTO 28007KT 10SM CLR 06/00 A2985 RMK AO2
Loading
Personal Weather Stations






























Interactive Weather Map New forecast layout! Learn more

10-Day Weather Forecast

Advertisements
Track Severe Weather on mobile